Time;durP1;ratioP1;P1;durP2;ratioP2;P2;SDS_P1;SDS_P2;PMS_P1;PMS_P2;Temp;Humidity;BMP_temperature;BMP_pressure;BME280_temperature;BME280_humidity;BME280_pressure;Samples;Min_cycle;Max_cycle;Signal;HPM_P1;HPM_P2
2023/07/10 00:01:59;;;;;;;5.38;4.13;;;;;;;;;;5006714;28;20041;-81
2023/07/10 00:04:25;;;;;;;5.30;3.90;;;;;;;;;;5023813;28;20025;-81
2023/07/10 00:06:50;;;;;;;5.30;4.00;;;;;;;;;;5023100;28;20171;-80
2023/07/10 00:09:16;;;;;;;10.15;3.92;;;;;;;;;;5056444;28;20053;-81
2023/07/10 00:11:42;;;;;;;9.27;4.15;;;;;;;;;;5023139;28;20035;-80
2023/07/10 00:14:19;;;;;;;6.00;3.80;;;;;;;;;;5039901;28;20036;-80
2023/07/10 00:16:44;;;;;;;8.73;3.78;;;;;;;;;;5040356;28;20033;-80
2023/07/10 00:19:10;;;;;;;6.28;4.22;;;;;;;;;;5056981;28;20028;-79
2023/07/10 00:21:35;;;;;;;8.32;4.07;;;;;;;;;;5039368;28;20028;-80
2023/07/10 00:24:01;;;;;;;7.63;4.10;;;;;;;;;;5039108;28;20060;-79
2023/07/10 00:26:26;;;;;;;6.30;4.30;;;;;;;;;;5039174;28;20072;-80
2023/07/10 00:28:53;;;;;;;7.00;4.07;;;;;;;;;;5039120;28;20126;-79
2023/07/10 00:31:19;;;;;;;8.80;4.25;;;;;;;;;;5056977;28;20037;-80
2023/07/10 00:33:48;;;;;;;5.45;3.88;;;;;;;;;;5056815;28;20401;-80
2023/07/10 00:36:37;;;;;;;7.78;4.10;;;;;;;;;;5023460;28;20522;-79
2023/07/10 00:39:20;;;;;;;5.57;4.32;;;;;;;;;;5039649;28;20025;-79
2023/07/10 00:42:06;;;;;;;5.07;4.20;;;;;;;;;;5056621;28;20025;-80
2023/07/10 00:44:37;;;;;;;7.78;4.22;;;;;;;;;;5042735;28;20052;-79
2023/07/10 00:47:10;;;;;;;5.82;4.32;;;;;;;;;;5041180;28;20025;-80
2023/07/10 00:49:58;;;;;;;6.28;3.92;;;;;;;;;;5042349;28;20116;-80
2023/07/10 00:52:40;;;;;;;5.47;4.05;;;;;;;;;;5038855;28;20082;-80
2023/07/10 00:55:29;;;;;;;7.20;4.50;;;;;;;;;;5055197;28;20373;-80
2023/07/10 00:58:05;;;;;;;6.53;4.28;;;;;;;;;;5055778;28;20104;-80
2023/07/10 01:00:33;;;;;;;4.43;4.00;;;;;;;;;;5040193;28;20139;-80
2023/07/10 01:02:58;;;;;;;7.45;4.30;;;;;;;;;;5038859;28;20028;-79
2023/07/10 01:05:24;;;;;;;7.00;4.25;;;;;;;;;;5056358;28;20025;-80
2023/07/10 01:07:54;;;;;;;8.52;4.22;;;;;;;;;;5038691;28;20071;-79
2023/07/10 01:10:19;;;;;;;4.60;4.13;;;;;;;;;;5039595;28;20053;-80
2023/07/10 01:12:45;;;;;;;5.22;4.10;;;;;;;;;;5022039;28;20087;-80
2023/07/10 01:15:11;;;;;;;6.57;4.20;;;;;;;;;;5056152;28;20644;-80
2023/07/10 01:17:37;;;;;;;6.72;3.97;;;;;;;;;;5038345;28;20029;-79
2023/07/10 01:20:23;;;;;;;6.63;4.45;;;;;;;;;;5005312;28;20448;-80
2023/07/10 01:22:49;;;;;;;5.45;4.30;;;;;;;;;;5038484;28;20122;-80
2023/07/10 01:25:14;;;;;;;6.38;4.25;;;;;;;;;;5038001;28;20067;-81
2023/07/10 01:27:40;;;;;;;6.35;4.45;;;;;;;;;;5021747;28;20061;-80
2023/07/10 01:30:07;;;;;;;9.27;4.20;;;;;;;;;;5043590;28;20049;-81
2023/07/10 01:32:32;;;;;;;6.32;4.20;;;;;;;;;;5037719;28;20040;-80
2023/07/10 01:35:01;;;;;;;6.57;4.38;;;;;;;;;;5021655;28;20040;-80
2023/07/10 01:37:26;;;;;;;7.93;4.70;;;;;;;;;;5038119;28;20056;-80
2023/07/10 01:39:52;;;;;;;7.72;4.68;;;;;;;;;;5055870;28;20106;-79
2023/07/10 01:42:18;;;;;;;5.97;4.80;;;;;;;;;;5021363;28;20120;-81
2023/07/10 01:44:45;;;;;;;7.10;4.90;;;;;;;;;;5055802;28;20049;-79
2023/07/10 01:47:11;;;;;;;5.13;4.22;;;;;;;;;;5042552;28;20028;-78
2023/07/10 01:49:42;;;;;;;6.53;4.50;;;;;;;;;;5055755;28;20024;-81
2023/07/10 01:52:09;;;;;;;5.78;4.38;;;;;;;;;;5055363;28;20051;-80
2023/07/10 01:54:34;;;;;;;5.15;4.10;;;;;;;;;;5052152;28;20020;-80
2023/07/10 01:57:00;;;;;;;7.38;4.88;;;;;;;;;;5018165;28;20055;-79
2023/07/10 01:59:26;;;;;;;9.05;4.50;;;;;;;;;;5057156;28;20056;-78
2023/07/10 02:01:53;;;;;;;5.38;4.30;;;;;;;;;;5041000;28;20029;-81
2023/07/10 02:04:18;;;;;;;6.03;4.78;;;;;;;;;;5054668;28;20029;-80
2023/07/10 02:06:44;;;;;;;5.72;4.07;;;;;;;;;;5067179;28;20090;-80
2023/07/10 02:09:09;;;;;;;12.82;4.53;;;;;;;;;;5076282;28;20032;-79
2023/07/10 02:11:35;;;;;;;6.63;4.20;;;;;;;;;;5052641;28;20012;-81
2023/07/10 02:14:04;;;;;;;8.20;4.25;;;;;;;;;;5051934;28;20017;-82
2023/07/10 02:16:30;;;;;;;9.60;4.70;;;;;;;;;;5042106;28;20029;-81
2023/07/10 02:18:55;;;;;;;11.93;4.80;;;;;;;;;;5074802;28;20167;-81
2023/07/10 02:21:21;;;;;;;10.38;4.10;;;;;;;;;;5023254;28;20072;-81
2023/07/10 02:23:49;;;;;;;6.97;4.07;;;;;;;;;;5075422;28;20092;-80
2023/07/10 02:26:15;;;;;;;6.93;4.22;;;;;;;;;;5057592;28;20025;-80
2023/07/10 02:28:41;;;;;;;10.73;4.53;;;;;;;;;;5044000;28;20059;-80
2023/07/10 02:31:06;;;;;;;5.10;4.00;;;;;;;;;;5032120;28;20025;-81
2023/07/10 02:33:32;;;;;;;7.63;4.65;;;;;;;;;;5068624;28;20032;-81
2023/07/10 02:35:58;;;;;;;6.97;4.30;;;;;;;;;;5071011;28;20025;-81
2023/07/10 02:38:23;;;;;;;6.78;4.50;;;;;;;;;;5071264;28;20019;-81
2023/07/10 02:40:49;;;;;;;4.97;3.95;;;;;;;;;;5053013;28;20033;-81
2023/07/10 02:43:14;;;;;;;10.55;4.70;;;;;;;;;;5034922;28;20539;-80
2023/07/10 02:45:40;;;;;;;9.05;4.20;;;;;;;;;;5063619;28;20047;-81
2023/07/10 02:48:05;;;;;;;7.43;4.45;;;;;;;;;;5014355;28;20060;-80
2023/07/10 02:50:31;;;;;;;7.13;4.05;;;;;;;;;;5032173;28;20029;-80
2023/07/10 02:52:56;;;;;;;7.45;4.40;;;;;;;;;;5027639;28;20392;-81
2023/07/10 02:55:22;;;;;;;8.43;4.30;;;;;;;;;;5037147;28;20139;-79
2023/07/10 02:57:47;;;;;;;4.90;4.43;;;;;;;;;;5037178;28;20033;-80
2023/07/10 03:00:13;;;;;;;5.68;4.30;;;;;;;;;;5020433;28;20436;-80
2023/07/10 03:02:39;;;;;;;7.80;4.82;;;;;;;;;;5036650;28;20033;-80
2023/07/10 03:05:04;;;;;;;5.45;4.38;;;;;;;;;;5053343;28;20444;-79
2023/07/10 03:07:30;;;;;;;5.47;4.40;;;;;;;;;;5043724;28;20124;-80
2023/07/10 03:09:56;;;;;;;6.07;4.57;;;;;;;;;;5021297;28;20124;-80
2023/07/10 03:12:21;;;;;;;5.15;3.85;;;;;;;;;;5028297;28;20029;-80
2023/07/10 03:14:48;;;;;;;5.80;4.45;;;;;;;;;;5054316;28;20029;-80
2023/07/10 03:17:13;;;;;;;5.72;4.53;;;;;;;;;;5052904;28;20437;-80
2023/07/10 03:19:39;;;;;;;5.45;4.32;;;;;;;;;;5036262;28;20033;-81
2023/07/10 03:22:04;;;;;;;7.38;4.40;;;;;;;;;;5036781;28;20025;-81
2023/07/10 03:24:30;;;;;;;5.22;4.68;;;;;;;;;;5036386;28;20086;-80
2023/07/10 03:26:56;;;;;;;7.47;4.47;;;;;;;;;;5020071;28;20613;-80
2023/07/10 03:29:21;;;;;;;6.45;4.30;;;;;;;;;;5022839;28;20029;-80
2023/07/10 03:31:46;;;;;;;6.53;4.53;;;;;;;;;;5003784;28;20025;-80
2023/07/10 03:34:12;;;;;;;7.88;4.22;;;;;;;;;;5019843;28;20076;-81
2023/07/10 03:36:38;;;;;;;4.70;4.20;;;;;;;;;;5036096;28;20051;-80
2023/07/10 03:39:03;;;;;;;8.70;5.10;;;;;;;;;;5019935;28;20029;-79
2023/07/10 03:41:29;;;;;;;6.60;4.68;;;;;;;;;;5036087;28;20029;-80
2023/07/10 03:43:55;;;;;;;7.88;4.95;;;;;;;;;;5035539;28;20040;-80
2023/07/10 03:46:20;;;;;;;7.20;4.75;;;;;;;;;;5036237;28;20029;-81
2023/07/10 03:48:47;;;;;;;8.75;4.68;;;;;;;;;;5053826;28;20036;-80
2023/07/10 03:51:13;;;;;;;10.43;4.65;;;;;;;;;;5036401;28;20119;-80
2023/07/10 03:53:39;;;;;;;8.27;4.68;;;;;;;;;;5036511;28;20128;-81
2023/07/10 03:56:05;;;;;;;9.63;5.03;;;;;;;;;;5053743;28;20033;-80
2023/07/10 03:58:31;;;;;;;10.98;4.85;;;;;;;;;;5019215;28;20520;-81
2023/07/10 04:00:58;;;;;;;7.25;4.65;;;;;;;;;;5019783;28;20040;-81
2023/07/10 04:03:25;;;;;;;14.90;5.03;;;;;;;;;;5035902;28;20162;-81
2023/07/10 04:05:52;;;;;;;7.88;4.70;;;;;;;;;;5035776;28;20028;-81
2023/07/10 04:08:21;;;;;;;12.18;4.85;;;;;;;;;;5019627;28;20375;-82
2023/07/10 04:10:53;;;;;;;13.43;5.05;;;;;;;;;;5035958;28;20029;-80
2023/07/10 04:13:18;;;;;;;9.63;4.72;;;;;;;;;;5052131;28;20123;-81
2023/07/10 04:15:54;;;;;;;8.48;4.60;;;;;;;;;;5053471;28;20055;-81
2023/07/10 04:18:20;;;;;;;8.48;4.90;;;;;;;;;;5035773;28;20098;-80
2023/07/10 04:20:45;;;;;;;8.68;4.82;;;;;;;;;;5053906;28;20025;-81
2023/07/10 04:23:11;;;;;;;12.57;4.68;;;;;;;;;;5035531;28;20025;-81
2023/07/10 04:25:37;;;;;;;6.13;4.63;;;;;;;;;;5036210;28;20341;-81
2023/07/10 04:28:03;;;;;;;9.00;4.70;;;;;;;;;;5035810;28;20036;-80
2023/07/10 04:30:31;;;;;;;10.55;4.75;;;;;;;;;;5019362;28;20388;-81
2023/07/10 04:32:56;;;;;;;6.50;4.57;;;;;;;;;;5038850;28;20024;-81
2023/07/10 04:35:22;;;;;;;8.45;4.20;;;;;;;;;;5006159;28;20068;-82
2023/07/10 04:37:47;;;;;;;8.13;4.57;;;;;;;;;;5006274;28;20456;-82
2023/07/10 04:40:15;;;;;;;5.75;4.07;;;;;;;;;;5022781;28;20032;-82
2023/07/10 04:42:40;;;;;;;4.75;4.10;;;;;;;;;;5022779;28;20414;-82
2023/07/10 04:45:06;;;;;;;6.05;4.40;;;;;;;;;;5056415;28;20045;-82
2023/07/10 04:47:32;;;;;;;9.68;4.25;;;;;;;;;;5056810;28;20028;-82
2023/07/10 04:49:57;;;;;;;8.40;4.32;;;;;;;;;;5056777;28;20029;-81
2023/07/10 04:52:23;;;;;;;5.32;4.30;;;;;;;;;;5038759;28;20459;-80
2023/07/10 04:54:50;;;;;;;6.53;4.10;;;;;;;;;;5056575;28;20025;-82
2023/07/10 04:57:16;;;;;;;5.15;4.28;;;;;;;;;;5022124;28;20021;-82
2023/07/10 04:59:41;;;;;;;7.28;4.07;;;;;;;;;;5022197;28;20070;-82
2023/07/10 05:02:07;;;;;;;6.82;4.32;;;;;;;;;;5038120;28;20068;-82
2023/07/10 05:04:32;;;;;;;6.72;4.60;;;;;;;;;;5056520;28;20121;-81
2023/07/10 05:07:02;;;;;;;9.05;4.65;;;;;;;;;;5038304;28;20040;-81
2023/07/10 05:09:31;;;;;;;12.15;4.97;;;;;;;;;;5039151;28;20079;-81
2023/07/10 05:11:56;;;;;;;7.72;5.85;;;;;;;;;;5038065;28;20028;-80
2023/07/10 05:14:22;;;;;;;8.85;5.00;;;;;;;;;;5056235;28;20021;-81
2023/07/10 05:16:47;;;;;;;12.00;5.43;;;;;;;;;;5038214;28;20027;-81
2023/07/10 05:19:13;;;;;;;7.65;5.18;;;;;;;;;;5055976;28;20025;-79
2023/07/10 05:21:38;;;;;;;7.47;4.85;;;;;;;;;;5038352;28;20025;-81
2023/07/10 05:24:04;;;;;;;10.82;4.72;;;;;;;;;;5037849;28;20033;-81
2023/07/10 05:26:30;;;;;;;8.30;4.20;;;;;;;;;;5037803;28;20448;-82
2023/07/10 05:28:56;;;;;;;8.23;4.25;;;;;;;;;;5038025;28;20534;-81
2023/07/10 05:31:21;;;;;;;6.88;4.10;;;;;;;;;;5055828;28;20460;-81
2023/07/10 05:33:47;;;;;;;5.93;3.90;;;;;;;;;;5055693;28;20025;-81
2023/07/10 05:36:16;;;;;;;4.57;3.90;;;;;;;;;;5055790;28;20510;-82
2023/07/10 05:38:42;;;;;;;7.82;3.75;;;;;;;;;;5039083;28;20399;-81
2023/07/10 05:41:08;;;;;;;8.48;3.33;;;;;;;;;;5038014;28;20029;-80
2023/07/10 05:43:34;;;;;;;13.15;3.92;;;;;;;;;;5020798;28;20098;-79
2023/07/10 05:45:59;;;;;;;38.75;6.03;;;;;;;;;;5055564;28;20112;-80
2023/07/10 05:48:25;;;;;;;13.40;4.28;;;;;;;;;;5021654;28;20064;-82
2023/07/10 05:50:50;;;;;;;8.27;4.53;;;;;;;;;;5063768;28;20021;-83
2023/07/10 05:53:16;;;;;;;5.45;3.47;;;;;;;;;;5028001;28;20017;-83
2023/07/10 05:55:49;;;;;;;7.05;4.25;;;;;;;;;;5056582;28;20037;-83
2023/07/10 05:58:15;;;;;;;5.57;3.67;;;;;;;;;;5062095;28;20081;-83
2023/07/10 06:00:41;;;;;;;7.90;3.72;;;;;;;;;;5077981;28;20021;-82
2023/07/10 06:03:06;;;;;;;10.07;3.53;;;;;;;;;;5077891;28;20048;-82
2023/07/10 06:05:32;;;;;;;6.97;3.63;;;;;;;;;;5061372;28;20067;-83
2023/07/10 06:07:57;;;;;;;4.78;3.75;;;;;;;;;;5066285;28;20040;-85
2023/07/10 06:10:23;;;;;;;5.68;3.40;;;;;;;;;;5037584;28;20098;-84
2023/07/10 06:12:48;;;;;;;6.03;4.00;;;;;;;;;;5037345;28;20021;-84
2023/07/10 06:15:14;;;;;;;9.00;3.83;;;;;;;;;;5055326;28;20064;-84
2023/07/10 06:17:39;;;;;;;7.35;3.15;;;;;;;;;;5020927;28;20040;-84
2023/07/10 06:20:05;;;;;;;9.13;3.20;;;;;;;;;;5037182;28;20088;-84
2023/07/10 06:22:30;;;;;;;7.53;3.50;;;;;;;;;;5054580;28;20025;-85
2023/07/10 06:24:56;;;;;;;9.18;3.50;;;;;;;;;;5037280;28;20086;-85
2023/07/10 06:27:21;;;;;;;3.47;3.00;;;;;;;;;;5055389;28;20025;-86
2023/07/10 06:29:47;;;;;;;3.35;3.00;;;;;;;;;;5037393;28;20040;-86
2023/07/10 06:32:12;;;;;;;6.32;3.35;;;;;;;;;;5037252;28;20487;-84
2023/07/10 06:34:38;;;;;;;7.32;3.00;;;;;;;;;;5055037;28;20021;-87
2023/07/10 06:37:04;;;;;;;6.70;3.22;;;;;;;;;;5020671;28;20033;-80
2023/07/10 06:39:29;;;;;;;4.30;3.22;;;;;;;;;;5055136;28;20063;-80
2023/07/10 06:41:54;;;;;;;7.43;3.60;;;;;;;;;;5036872;28;20385;-80
2023/07/10 06:44:20;;;;;;;5.70;3.25;;;;;;;;;;5054891;28;20119;-79
2023/07/10 06:46:46;;;;;;;4.10;3.30;;;;;;;;;;5037248;28;20078;-81
2023/07/10 06:49:11;;;;;;;5.97;3.30;;;;;;;;;;5036980;28;20468;-80
2023/07/10 06:51:37;;;;;;;6.25;3.25;;;;;;;;;;5057247;28;20031;-81
2023/07/10 06:54:03;;;;;;;4.47;2.97;;;;;;;;;;5038385;28;20127;-79
2023/07/10 06:56:29;;;;;;;15.02;4.00;;;;;;;;;;5055216;28;20436;-80
2023/07/10 06:58:55;;;;;;;6.15;3.10;;;;;;;;;;5037040;28;20124;-80
2023/07/10 07:01:20;;;;;;;5.45;3.60;;;;;;;;;;5019850;28;20075;-80
2023/07/10 07:03:46;;;;;;;5.00;3.42;;;;;;;;;;5035688;28;20036;-80
2023/07/10 07:06:11;;;;;;;5.78;3.40;;;;;;;;;;5036286;28;20025;-82
2023/07/10 07:08:37;;;;;;;3.95;3.30;;;;;;;;;;5036205;28;20099;-82
2023/07/10 07:11:02;;;;;;;5.90;3.20;;;;;;;;;;5019341;28;20029;-82
2023/07/10 07:13:28;;;;;;;17.17;3.42;;;;;;;;;;5053838;28;20029;-81
2023/07/10 07:15:54;;;;;;;8.45;3.28;;;;;;;;;;5036555;28;20124;-82
2023/07/10 07:18:20;;;;;;;12.15;3.65;;;;;;;;;;5019802;28;20437;-82
2023/07/10 07:20:46;;;;;;;5.50;3.40;;;;;;;;;;5053624;28;20032;-82
2023/07/10 07:23:11;;;;;;;7.53;3.17;;;;;;;;;;5036577;28;20029;-79
2023/07/10 07:25:38;;;;;;;12.93;3.40;;;;;;;;;;5053784;28;20052;-82
2023/07/10 07:28:04;;;;;;;9.05;3.60;;;;;;;;;;5035783;28;20029;-80
2023/07/10 07:30:30;;;;;;;7.13;3.17;;;;;;;;;;5033736;28;20029;-82
2023/07/10 07:32:56;;;;;;;3.88;3.08;;;;;;;;;;4999918;28;20411;-81
2023/07/10 07:35:22;;;;;;;5.78;3.05;;;;;;;;;;5016072;28;20026;-80
2023/07/10 07:37:47;;;;;;;6.50;3.15;;;;;;;;;;5016594;28;20471;-80
2023/07/10 07:40:16;;;;;;;5.35;3.35;;;;;;;;;;5015942;28;20461;-82
2023/07/10 07:42:42;;;;;;;4.90;3.38;;;;;;;;;;5014667;28;20083;-80
2023/07/10 07:45:08;;;;;;;4.55;3.20;;;;;;;;;;5014481;28;20054;-82
2023/07/10 07:47:34;;;;;;;7.32;3.67;;;;;;;;;;5032174;28;20030;-81
2023/07/10 07:50:00;;;;;;;4.95;3.30;;;;;;;;;;5032213;28;20030;-80
2023/07/10 07:52:25;;;;;;;5.00;3.42;;;;;;;;;;5014379;28;20516;-80
2023/07/10 07:54:51;;;;;;;5.93;3.20;;;;;;;;;;5014813;28;20140;-81
2023/07/10 07:57:17;;;;;;;6.03;3.40;;;;;;;;;;5033817;28;20032;-82
2023/07/10 07:59:42;;;;;;;7.68;3.20;;;;;;;;;;5000071;28;20552;-79
2023/07/10 08:02:08;;;;;;;4.78;3.60;;;;;;;;;;5033883;28;20091;-81
2023/07/10 08:04:34;;;;;;;5.65;3.53;;;;;;;;;;5034031;28;20029;-81
2023/07/10 08:06:59;;;;;;;4.13;3.25;;;;;;;;;;5036780;28;20369;-80
2023/07/10 08:09:25;;;;;;;8.55;3.45;;;;;;;;;;5019706;28;20465;-84
2023/07/10 08:11:50;;;;;;;7.70;3.50;;;;;;;;;;5004023;28;20488;-80
2023/07/10 08:14:15;;;;;;;5.38;3.42;;;;;;;;;;5019730;28;20029;-81
2023/07/10 08:16:41;;;;;;;10.10;4.68;;;;;;;;;;5019483;28;20072;-82
2023/07/10 08:19:06;;;;;;;11.15;4.43;;;;;;;;;;5036989;28;20369;-82
2023/07/10 08:21:32;;;;;;;5.28;3.17;;;;;;;;;;5019441;28;20021;-84
2023/07/10 08:23:57;;;;;;;14.15;3.80;;;;;;;;;;5003259;28;20029;-85
2023/07/10 08:26:23;;;;;;;6.45;3.50;;;;;;;;;;5019631;28;20029;-84
2023/07/10 08:28:49;;;;;;;4.63;3.33;;;;;;;;;;5020127;28;20029;-84
2023/07/10 08:31:14;;;;;;;5.22;3.70;;;;;;;;;;5019207;28;20026;-88
2023/07/10 08:33:40;;;;;;;7.60;3.55;;;;;;;;;;5019545;28;20032;-88
2023/07/10 08:36:06;;;;;;;4.60;3.22;;;;;;;;;;5003464;28;20128;-86
2023/07/10 08:38:32;;;;;;;4.72;3.22;;;;;;;;;;5004036;28;20053;-87
2023/07/10 08:41:05;;;;;;;8.52;3.20;;;;;;;;;;5002178;28;20032;-82
2023/07/10 08:43:38;;;;;;;4.07;3.38;;;;;;;;;;4986023;28;20053;-86
2023/07/10 08:46:06;;;;;;;9.23;3.58;;;;;;;;;;5020806;28;20484;-90
2023/07/10 08:48:38;;;;;;;3.78;3.30;;;;;;;;;;5017576;28;20026;-86
2023/07/10 08:51:19;;;;;;;7.32;3.40;;;;;;;;;;5002652;28;20084;-83
2023/07/10 08:53:52;;;;;;;6.50;3.40;;;;;;;;;;5002090;28;20034;-85
2023/07/10 08:56:20;;;;;;;3.88;3.58;;;;;;;;;;5005114;28;20381;-90
2023/07/10 08:58:46;;;;;;;4.32;3.63;;;;;;;;;;5037314;28;20095;-79
2023/07/10 09:01:31;;;;;;;5.65;3.70;;;;;;;;;;5019317;28;20030;-82
2023/07/10 09:03:58;;;;;;;4.65;4.15;;;;;;;;;;5002775;28;20059;-82
2023/07/10 09:06:43;;;;;;;7.27;3.77;;;;;;;;;;5036154;28;20369;-82
2023/07/10 09:09:36;;;;;;;3.92;3.40;;;;;;;;;;5018632;28;20413;-81
2023/07/10 09:12:09;;;;;;;4.13;3.30;;;;;;;;;;5036496;28;20030;-82
2023/07/10 09:14:57;;;;;;;10.15;3.80;;;;;;;;;;5018433;28;20045;-82
2023/07/10 09:17:41;;;;;;;6.10;3.17;;;;;;;;;;5017904;28;20384;-82
2023/07/10 09:20:10;;;;;;;9.55;3.35;;;;;;;;;;5036546;28;20116;-82
2023/07/10 09:22:36;;;;;;;5.65;3.15;;;;;;;;;;5035998;28;20029;-83
2023/07/10 09:25:01;;;;;;;5.05;3.20;;;;;;;;;;5018774;28;20083;-82
2023/07/10 09:27:27;;;;;;;4.25;3.20;;;;;;;;;;5001787;28;20495;-82
2023/07/10 09:29:53;;;;;;;5.78;2.95;;;;;;;;;;5018387;28;20096;-82
2023/07/10 09:32:19;;;;;;;4.20;3.30;;;;;;;;;;5018527;28;20038;-82
2023/07/10 09:34:50;;;;;;;6.32;3.40;;;;;;;;;;5002353;28;20037;-80
2023/07/10 09:37:19;;;;;;;7.43;3.30;;;;;;;;;;5002260;28;20026;-80
2023/07/10 09:39:45;;;;;;;3.92;3.28;;;;;;;;;;5002025;28;20032;-80
2023/07/10 09:42:20;;;;;;;5.75;3.80;;;;;;;;;;5017886;28;20453;-80
2023/07/10 09:44:50;;;;;;;7.55;3.60;;;;;;;;;;5014589;28;20480;-80
2023/07/10 09:47:16;;;;;;;4.35;3.10;;;;;;;;;;5014179;28;20095;-81
2023/07/10 09:49:56;;;;;;;6.13;3.20;;;;;;;;;;5015629;28;20467;-80
2023/07/10 09:52:31;;;;;;;6.70;3.22;;;;;;;;;;4982896;28;20088;-84
2023/07/10 09:55:02;;;;;;;4.43;3.05;;;;;;;;;;4997809;28;20037;-82
2023/07/10 09:57:27;;;;;;;6.32;3.20;;;;;;;;;;4998267;28;20026;-80
2023/07/10 09:59:54;;;;;;;5.93;3.08;;;;;;;;;;4997880;28;20414;-81
2023/07/10 10:02:48;;;;;;;3.65;3.30;;;;;;;;;;5014477;28;20036;-82
2023/07/10 10:05:16;;;;;;;3.00;2.70;;;;;;;;;;5013781;28;20037;-81
2023/07/10 10:07:44;;;;;;;6.30;3.33;;;;;;;;;;5015226;28;20088;-80
2023/07/10 10:10:20;;;;;;;9.63;3.20;;;;;;;;;;5015276;28;20117;-82
2023/07/10 10:13:03;;;;;;;3.22;2.80;;;;;;;;;;5014355;28;20079;-82
2023/07/10 10:16:02;;;;;;;6.57;3.35;;;;;;;;;;5013854;28;20030;-80
2023/07/10 10:18:35;;;;;;;4.63;2.85;;;;;;;;;;5014554;28;20034;-81
2023/07/10 10:21:05;;;;;;;4.93;3.00;;;;;;;;;;4998377;28;20030;-81
2023/07/10 10:23:36;;;;;;;7.45;2.95;;;;;;;;;;4997774;28;20042;-81
2023/07/10 10:26:30;;;;;;;7.68;2.90;;;;;;;;;;4997663;28;20060;-80
2023/07/10 10:29:02;;;;;;;3.65;2.80;;;;;;;;;;5014500;28;20026;-81
2023/07/10 10:31:36;;;;;;;3.40;3.10;;;;;;;;;;5014031;28;20037;-81
2023/07/10 10:34:01;;;;;;;6.25;3.30;;;;;;;;;;4998065;28;20389;-79
2023/07/10 10:36:30;;;;;;;4.70;2.80;;;;;;;;;;5014893;28;20037;-80
2023/07/10 10:38:59;;;;;;;3.50;3.20;;;;;;;;;;5013951;28;20045;-81
2023/07/10 10:41:54;;;;;;;3.97;2.88;;;;;;;;;;4997308;28;20021;-80
2023/07/10 10:44:25;;;;;;;8.23;3.80;;;;;;;;;;5013320;28;20049;-80
2023/07/10 10:46:57;;;;;;;5.53;3.35;;;;;;;;;;5013482;28;20026;-78
2023/07/10 10:49:36;;;;;;;4.50;3.25;;;;;;;;;;5013381;28;20084;-80
2023/07/10 10:52:01;;;;;;;;;;;;;;;;;;5014004;28;20446;-80
2023/07/10 10:54:48;;;;;;;6.30;3.60;;;;;;;;;;5046745;28;19936;-79
2023/07/10 10:57:26;;;;;;;4.40;2.88;;;;;;;;;;5014762;28;20272;-81
2023/07/10 11:00:25;;;;;;;10.27;3.80;;;;;;;;;;4981203;28;20116;-79
2023/07/10 11:03:05;;;;;;;4.03;3.63;;;;;;;;;;4999191;28;20034;-80
2023/07/10 11:05:45;;;;;;;3.28;2.95;;;;;;;;;;5014359;28;20030;-82
2023/07/10 11:08:23;;;;;;;4.30;3.17;;;;;;;;;;4981690;28;20030;-80
2023/07/10 11:10:48;;;;;;;4.00;3.20;;;;;;;;;;4998035;28;20125;-80
2023/07/10 11:13:40;;;;;;;5.65;3.45;;;;;;;;;;4980339;28;20057;-80
2023/07/10 11:16:06;;;;;;;4.65;3.30;;;;;;;;;;5010201;28;20381;-81
2023/07/10 11:18:32;;;;;;;5.40;3.28;;;;;;;;;;4996805;28;20017;-80
2023/07/10 11:21:00;;;;;;;3.58;3.22;;;;;;;;;;4996716;28;20026;-81
2023/07/10 11:23:40;;;;;;;5.53;3.20;;;;;;;;;;4996788;28;20069;-80
2023/07/10 11:26:25;;;;;;;6.32;3.63;;;;;;;;;;5014098;28;20030;-80
2023/07/10 11:29:16;;;;;;;6.18;3.50;;;;;;;;;;4996764;28;20029;-82
2023/07/10 11:31:42;;;;;;;5.30;3.55;;;;;;;;;;5013504;28;20049;-80
2023/07/10 11:34:07;;;;;;;6.22;3.28;;;;;;;;;;5013292;28;20416;-80
2023/07/10 11:36:33;;;;;;;6.82;3.60;;;;;;;;;;5014578;28;20065;-80
2023/07/10 11:39:10;;;;;;;5.15;3.20;;;;;;;;;;5014262;28;20343;-79
2023/07/10 11:41:42;;;;;;;5.18;3.60;;;;;;;;;;5015555;28;20034;-80
2023/07/10 11:44:13;;;;;;;3.97;3.60;;;;;;;;;;5026598;28;20051;-80
2023/07/10 11:46:57;;;;;;;6.38;3.70;;;;;;;;;;5038520;28;20055;-79
2023/07/10 11:49:24;;;;;;;4.38;3.67;;;;;;;;;;5021114;28;20021;-81
2023/07/10 11:52:14;;;;;;;6.10;3.88;;;;;;;;;;5020395;28;20030;-79
2023/07/10 11:54:48;;;;;;;6.97;3.80;;;;;;;;;;5037533;28;20120;-83
2023/07/10 11:57:19;;;;;;;5.32;3.53;;;;;;;;;;5037585;28;20133;-80
2023/07/10 11:59:55;;;;;;;6.90;3.53;;;;;;;;;;5037533;28;20114;-82
2023/07/10 12:02:35;;;;;;;5.15;3.88;;;;;;;;;;5019617;28;20465;-79
2023/07/10 12:05:02;;;;;;;9.45;3.95;;;;;;;;;;5037536;28;20055;-81
2023/07/10 12:07:28;;;;;;;6.32;3.70;;;;;;;;;;5037604;28;20026;-81
2023/07/10 12:09:56;;;;;;;6.38;4.00;;;;;;;;;;5003465;28;20364;-81
2023/07/10 12:12:21;;;;;;;13.13;3.97;;;;;;;;;;5003265;28;20476;-81
2023/07/10 12:14:47;;;;;;;5.50;4.20;;;;;;;;;;5037150;28;20323;-79
2023/07/10 12:17:17;;;;;;;5.30;3.88;;;;;;;;;;5037579;28;20475;-81
2023/07/10 12:19:42;;;;;;;5.60;3.80;;;;;;;;;;5037050;28;20022;-81
2023/07/10 12:22:22;;;;;;;9.93;3.92;;;;;;;;;;5019341;28;20079;-79
2023/07/10 12:24:49;;;;;;;9.68;4.50;;;;;;;;;;5019694;28;20355;-81
2023/07/10 12:27:14;;;;;;;4.57;4.15;;;;;;;;;;5019594;28;20032;-80
2023/07/10 12:29:50;;;;;;;8.23;4.18;;;;;;;;;;5019317;28;20018;-79
2023/07/10 12:32:16;;;;;;;7.05;4.07;;;;;;;;;;5036749;28;20026;-80
2023/07/10 12:34:41;;;;;;;6.75;4.25;;;;;;;;;;5019120;28;20060;-80
2023/07/10 12:37:08;;;;;;;6.13;4.10;;;;;;;;;;5019447;28;20079;-81
2023/07/10 12:39:34;;;;;;;8.32;4.30;;;;;;;;;;5002679;28;20423;-80
2023/07/10 12:41:59;;;;;;;7.18;4.53;;;;;;;;;;4986315;28;20065;-79
2023/07/10 12:44:29;;;;;;;5.28;3.85;;;;;;;;;;5036303;28;20559;-80
2023/07/10 12:47:07;;;;;;;7.45;4.30;;;;;;;;;;5002533;28;20041;-80
2023/07/10 12:49:33;;;;;;;6.28;4.00;;;;;;;;;;5018885;28;20075;-79
2023/07/10 12:51:59;;;;;;;5.15;4.38;;;;;;;;;;5017446;28;20460;-79
2023/07/10 12:54:31;;;;;;;4.85;4.20;;;;;;;;;;5036107;28;20046;-77
2023/07/10 12:56:57;;;;;;;9.13;4.30;;;;;;;;;;5002886;28;20026;-78
2023/07/10 12:59:33;;;;;;;5.45;4.18;;;;;;;;;;5018863;28;20022;-83
2023/07/10 13:02:11;;;;;;;5.45;4.78;;;;;;;;;;5002456;28;20033;-82
2023/07/10 13:04:41;;;;;;;8.05;4.72;;;;;;;;;;5004155;28;20384;-84
2023/07/10 13:07:18;;;;;;;5.78;4.57;;;;;;;;;;5002291;28;20037;-76
2023/07/10 13:09:54;;;;;;;10.27;4.57;;;;;;;;;;5002056;28;20028;-79
2023/07/10 13:12:32;;;;;;;7.18;4.75;;;;;;;;;;5035920;28;20053;-78
2023/07/10 13:14:58;;;;;;;5.78;4.72;;;;;;;;;;5036399;28;20056;-78
2023/07/10 13:17:25;;;;;;;6.75;4.47;;;;;;;;;;5036194;28;20449;-79
2023/07/10 13:19:50;;;;;;;5.28;4.25;;;;;;;;;;5036202;28;20128;-80
2023/07/10 13:22:16;;;;;;;7.50;4.30;;;;;;;;;;5018422;28;20029;-80
2023/07/10 13:24:41;;;;;;;4.90;4.20;;;;;;;;;;4985378;28;20037;-80
2023/07/10 13:27:16;;;;;;;8.57;4.70;;;;;;;;;;5018069;28;20484;-79
2023/07/10 13:29:42;;;;;;;7.65;4.28;;;;;;;;;;5002875;28;20059;-80
2023/07/10 13:32:11;;;;;;;6.40;4.60;;;;;;;;;;5018148;28;20029;-79
2023/07/10 13:34:36;;;;;;;7.07;4.45;;;;;;;;;;5001897;28;20040;-80
2023/07/10 13:37:02;;;;;;;7.72;4.45;;;;;;;;;;4985393;28;20037;-79
2023/07/10 13:39:27;;;;;;;5.20;4.53;;;;;;;;;;5035305;28;20056;-79
2023/07/10 13:41:53;;;;;;;5.10;4.53;;;;;;;;;;5035779;28;20449;-79
2023/07/10 13:44:18;;;;;;;6.10;4.75;;;;;;;;;;5017685;28;20049;-80
2023/07/10 13:46:44;;;;;;;6.47;4.55;;;;;;;;;;5018320;28;20032;-80
2023/07/10 13:49:13;;;;;;;8.07;4.70;;;;;;;;;;5001797;28;20078;-80
2023/07/10 13:51:38;;;;;;;6.30;4.50;;;;;;;;;;5017872;28;20120;-80
2023/07/10 13:54:04;;;;;;;5.38;4.53;;;;;;;;;;5017261;28;20511;-80
2023/07/10 13:56:36;;;;;;;6.45;4.72;;;;;;;;;;5017771;28;20029;-79
2023/07/10 13:59:02;;;;;;;7.80;4.60;;;;;;;;;;5001030;28;20125;-78
2023/07/10 14:01:27;;;;;;;6.07;4.70;;;;;;;;;;5001307;28;20496;-80
2023/07/10 14:03:53;;;;;;;7.95;4.80;;;;;;;;;;5034715;28;20033;-80
2023/07/10 14:06:24;;;;;;;8.20;4.45;;;;;;;;;;5017318;28;20033;-80
2023/07/10 14:08:54;;;;;;;6.95;4.68;;;;;;;;;;5017305;28;20087;-80
2023/07/10 14:11:20;;;;;;;9.35;4.68;;;;;;;;;;5017393;28;20412;-80
2023/07/10 14:13:46;;;;;;;5.43;4.85;;;;;;;;;;5017526;28;20116;-80
2023/07/10 14:16:14;;;;;;;14.43;4.45;;;;;;;;;;5017285;28;20510;-79
2023/07/10 14:18:39;;;;;;;8.90;4.55;;;;;;;;;;5034916;28;20037;-81
2023/07/10 14:21:04;;;;;;;6.95;4.82;;;;;;;;;;5017120;28;20045;-79
2023/07/10 14:23:30;;;;;;;7.50;4.70;;;;;;;;;;5017047;28;20037;-81
2023/07/10 14:25:55;;;;;;;11.23;4.72;;;;;;;;;;5033726;28;20433;-80
2023/07/10 14:28:22;;;;;;;8.70;4.55;;;;;;;;;;5033411;28;20037;-80
2023/07/10 14:30:48;;;;;;;9.07;4.60;;;;;;;;;;5000734;28;20029;-80
2023/07/10 14:33:14;;;;;;;6.95;4.78;;;;;;;;;;5000785;28;20124;-80
2023/07/10 14:35:40;;;;;;;8.05;4.25;;;;;;;;;;5017134;28;20030;-80
2023/07/10 14:38:18;;;;;;;10.45;5.10;;;;;;;;;;5034704;28;20115;-79
2023/07/10 14:40:43;;;;;;;7.47;4.60;;;;;;;;;;5002100;28;20128;-78
2023/07/10 14:43:09;;;;;;;11.07;4.78;;;;;;;;;;5018175;28;20484;-80
2023/07/10 14:45:35;;;;;;;11.63;5.15;;;;;;;;;;5001607;28;20041;-82
2023/07/10 14:48:00;;;;;;;5.65;5.00;;;;;;;;;;5017385;28;20037;-77
2023/07/10 14:50:26;;;;;;;6.95;4.85;;;;;;;;;;5034123;28;20424;-79
2023/07/10 14:52:51;;;;;;;7.80;4.85;;;;;;;;;;5016601;28;20037;-80